createdAt,value
2022-11-03T00:01:34.492Z,2.27
2022-11-03T00:04:02.297Z,2.10
2022-11-03T00:06:30.117Z,2.50
2022-11-03T00:08:59.642Z,2.17
2022-11-03T00:11:27.439Z,2.20
2022-11-03T00:13:57.634Z,2.73
2022-11-03T00:16:25.509Z,2.40
2022-11-03T00:18:53.606Z,2.23
2022-11-03T00:21:21.854Z,2.30
2022-11-03T00:23:49.978Z,2.20
2022-11-03T00:26:20.711Z,2.17
2022-11-03T00:28:49.657Z,2.50
2022-11-03T00:31:20.537Z,2.00
2022-11-03T00:33:48.987Z,2.23
2022-11-03T00:36:18.422Z,2.60
2022-11-03T00:38:47.222Z,2.57
2022-11-03T00:41:16.344Z,2.40
2022-11-03T00:43:44.566Z,2.27
2022-11-03T00:46:12.373Z,2.60
2022-11-03T00:48:42.289Z,2.70
2022-11-03T00:51:11.806Z,2.53
2022-11-03T00:53:41.156Z,2.60
2022-11-03T00:56:12.207Z,2.40
2022-11-03T00:58:39.974Z,2.00
2022-11-03T01:01:11.292Z,2.53
2022-11-03T01:03:41.916Z,2.33
2022-11-03T01:06:28.026Z,3.47
2022-11-03T01:08:55.952Z,2.60
2022-11-03T01:11:42.977Z,2.30
2022-11-03T01:14:12.113Z,2.23
2022-11-03T01:16:39.934Z,2.63
2022-11-03T01:19:09.594Z,2.40
2022-11-03T01:21:37.566Z,2.73
2022-11-03T01:24:05.947Z,2.63
2022-11-03T01:26:34.105Z,2.30
2022-11-03T01:29:02.310Z,2.47
2022-11-03T01:31:30.386Z,2.43
2022-11-03T01:33:58.572Z,2.47
2022-11-03T01:36:27.998Z,2.43
2022-11-03T01:38:56.746Z,2.93
2022-11-03T01:41:27.350Z,2.83
2022-11-03T01:44:27.418Z,2.67
2022-11-03T01:46:58.940Z,2.10
2022-11-03T01:49:31.490Z,2.67
2022-11-03T01:52:03.963Z,2.43
2022-11-03T01:54:33.300Z,2.40
2022-11-03T01:57:01.623Z,2.30
2022-11-03T01:59:29.605Z,2.80
2022-11-03T02:01:57.526Z,2.23
2022-11-03T02:04:29.559Z,2.20
2022-11-03T02:07:09.700Z,2.17
2022-11-03T02:09:37.493Z,2.53
2022-11-03T02:12:08.877Z,2.53
2022-11-03T02:14:39.797Z,2.50
2022-11-03T02:17:10.795Z,2.53
2022-11-03T02:19:42.345Z,2.43
2022-11-03T02:22:28.927Z,2.47
2022-11-03T02:25:06.267Z,2.70
2022-11-03T02:27:35.448Z,2.50
2022-11-03T02:30:03.830Z,2.23
2022-11-03T02:32:31.099Z,2.20
2022-11-03T02:35:05.130Z,2.27
2022-11-03T02:37:37.798Z,2.20
2022-11-03T02:40:09.316Z,3.50
2022-11-03T02:42:41.539Z,2.47
2022-11-03T02:45:16.386Z,2.43
2022-11-03T02:47:46.417Z,2.40
2022-11-03T02:50:14.189Z,2.47
2022-11-03T02:52:44.723Z,2.40
2022-11-03T02:55:19.050Z,2.70
2022-11-03T02:57:54.222Z,2.20
2022-11-03T03:00:22.833Z,2.43
2022-11-03T03:02:58.082Z,2.13
2022-11-03T03:05:31.107Z,2.30
2022-11-03T03:08:02.967Z,2.70
2022-11-03T03:10:34.351Z,2.70
2022-11-03T03:13:04.899Z,2.30
2022-11-03T03:15:41.560Z,2.43
2022-11-03T03:18:21.075Z,2.80
2022-11-03T03:20:55.842Z,2.17
2022-11-03T03:23:26.171Z,2.67
2022-11-03T03:25:59.365Z,2.40
2022-11-03T03:28:34.897Z,2.07
2022-11-03T03:31:07.258Z,2.43
2022-11-03T03:33:36.353Z,1.90
2022-11-03T03:36:10.302Z,2.57
2022-11-03T03:38:42.375Z,2.23
2022-11-03T03:41:13.571Z,2.43
2022-11-03T03:43:43.430Z,2.40
2022-11-03T03:46:14.681Z,2.30
2022-11-03T03:48:42.985Z,2.43
2022-11-03T03:51:12.434Z,2.50
2022-11-03T03:53:40.291Z,2.60
2022-11-03T03:56:08.406Z,2.17
2022-11-03T03:58:36.170Z,2.13
2022-11-03T04:01:05.297Z,2.30
2022-11-03T04:03:33.079Z,2.43
2022-11-03T04:06:00.884Z,2.47
2022-11-03T04:08:28.633Z,2.33
2022-11-03T04:11:14.042Z,2.07
2022-11-03T04:13:59.366Z,2.00
2022-11-03T04:16:57.346Z,2.33
2022-11-03T04:19:42.583Z,2.30
2022-11-03T04:22:19.173Z,2.60
2022-11-03T04:24:48.083Z,2.40
2022-11-03T04:27:31.033Z,2.20
2022-11-03T04:30:03.127Z,2.30
2022-11-03T04:32:32.223Z,2.83
2022-11-03T04:35:00.615Z,2.30
2022-11-03T04:37:29.541Z,2.63
2022-11-03T04:40:01.163Z,2.23
2022-11-03T04:42:32.378Z,2.63
2022-11-03T04:45:03.131Z,2.10
2022-11-03T04:47:32.434Z,2.47
2022-11-03T04:50:00.334Z,2.30
2022-11-03T04:52:28.098Z,2.20
2022-11-03T04:54:55.860Z,2.43
2022-11-03T04:57:23.598Z,2.10
2022-11-03T04:59:51.606Z,2.53
2022-11-03T05:02:21.845Z,2.40
2022-11-03T05:04:50.963Z,2.23
2022-11-03T05:07:27.956Z,2.43
2022-11-03T05:09:56.074Z,2.10
2022-11-03T05:12:24.309Z,2.00
2022-11-03T05:14:57.897Z,2.10
2022-11-03T05:17:28.341Z,3.90
2022-11-03T05:20:01.106Z,2.13
2022-11-03T05:22:34.978Z,2.30
2022-11-03T05:25:08.396Z,2.30
2022-11-03T05:27:36.325Z,2.20
2022-11-03T05:30:08.150Z,2.20
2022-11-03T05:32:36.077Z,2.20
2022-11-03T05:35:16.880Z,2.47
2022-11-03T05:37:44.664Z,2.27
2022-11-03T05:40:21.741Z,2.10
2022-11-03T05:42:52.739Z,2.43
2022-11-03T05:45:24.273Z,1.93
2022-11-03T05:47:55.267Z,2.03
2022-11-03T05:50:26.960Z,2.13
2022-11-03T05:52:57.145Z,2.57
2022-11-03T05:55:28.769Z,2.50
2022-11-03T05:57:59.826Z,2.10
2022-11-03T06:00:30.553Z,2.43
2022-11-03T06:02:59.819Z,1.80
2022-11-03T06:05:29.273Z,2.50
2022-11-03T06:08:00.417Z,2.30
2022-11-03T06:10:30.557Z,2.37
2022-11-03T06:13:02.668Z,2.00
2022-11-03T06:15:32.525Z,2.40
2022-11-03T06:18:01.093Z,1.90
2022-11-03T06:20:30.274Z,2.10
2022-11-03T06:22:58.067Z,2.43
2022-11-03T06:25:30.785Z,1.90
2022-11-03T06:28:03.161Z,2.23
2022-11-03T06:30:33.245Z,2.40
2022-11-03T06:33:05.637Z,2.43
2022-11-03T06:35:36.356Z,1.90
2022-11-03T06:38:04.128Z,2.30
2022-11-03T06:40:35.558Z,2.20
2022-11-03T06:43:15.709Z,2.73
2022-11-03T06:45:50.836Z,2.13
2022-11-03T06:48:24.739Z,2.37
2022-11-03T06:50:54.815Z,2.20
2022-11-03T06:53:26.120Z,2.03
2022-11-03T06:55:54.634Z,2.17
2022-11-03T06:58:32.057Z,1.83
2022-11-03T07:01:04.004Z,2.60
2022-11-03T07:03:35.023Z,2.07
2022-11-03T07:06:14.576Z,2.07
2022-11-03T07:08:45.324Z,2.23
2022-11-03T07:11:17.700Z,2.30
2022-11-03T07:13:46.325Z,2.03
2022-11-03T07:16:18.860Z,2.70
2022-11-03T07:18:48.534Z,2.23
2022-11-03T07:21:36.738Z,2.23
2022-11-03T07:24:14.100Z,2.30
2022-11-03T07:26:41.950Z,1.97
2022-11-03T07:29:16.627Z,2.00
2022-11-03T07:31:44.382Z,2.10
2022-11-03T07:34:16.342Z,2.00
2022-11-03T07:36:48.970Z,1.97
2022-11-03T07:39:21.962Z,2.30
2022-11-03T07:41:51.542Z,2.60
2022-11-03T07:44:21.631Z,1.90
2022-11-03T07:46:51.269Z,1.80
2022-11-03T07:49:27.580Z,2.07
2022-11-03T07:51:58.293Z,2.13
2022-11-03T07:54:29.691Z,2.40
2022-11-03T07:56:59.355Z,2.37
2022-11-03T07:59:29.952Z,2.20
2022-11-03T08:01:58.869Z,2.60
2022-11-03T08:04:29.947Z,2.50
2022-11-03T08:06:59.147Z,2.40
2022-11-03T08:09:27.097Z,2.40
2022-11-03T08:11:54.909Z,2.67
2022-11-03T08:14:22.710Z,2.50
2022-11-03T08:16:50.502Z,2.57
2022-11-03T08:19:18.254Z,2.30
2022-11-03T08:21:46.482Z,2.40
2022-11-03T08:24:15.562Z,2.67
2022-11-03T08:26:43.349Z,2.87
2022-11-03T08:29:11.114Z,3.10
2022-11-03T08:31:38.911Z,2.87
2022-11-03T08:34:06.861Z,2.60
2022-11-03T08:36:34.638Z,2.90
2022-11-03T08:39:02.472Z,2.73
2022-11-03T08:41:31.607Z,2.80
2022-11-03T08:43:59.422Z,2.50
2022-11-03T08:46:27.409Z,3.27
2022-11-03T08:48:55.304Z,2.70
2022-11-03T08:51:23.170Z,3.00
2022-11-03T08:53:53.945Z,2.50
2022-11-03T08:56:22.795Z,3.00
2022-11-03T08:58:52.495Z,2.87
2022-11-03T09:01:21.324Z,2.63
2022-11-03T09:03:49.780Z,3.37
2022-11-03T09:06:17.695Z,2.73
2022-11-03T09:11:34.323Z,2.63
2022-11-03T09:14:03.890Z,3.07
2022-11-03T09:16:31.675Z,2.67
2022-11-03T09:18:59.411Z,2.77
2022-11-03T09:21:27.189Z,2.63
2022-11-03T09:23:55.125Z,2.87
2022-11-03T09:26:22.904Z,2.70
2022-11-03T09:28:50.682Z,2.77
2022-11-03T09:31:20.245Z,3.17
2022-11-03T09:33:48.149Z,2.93
2022-11-03T09:36:15.929Z,2.63
2022-11-03T09:38:43.778Z,2.50
2022-11-03T09:41:26.499Z,2.93
2022-11-03T09:43:59.101Z,2.80
2022-11-03T09:46:30.566Z,2.33
2022-11-03T09:48:59.557Z,2.47
2022-11-03T09:51:28.640Z,2.50
2022-11-03T09:53:58.483Z,2.90
2022-11-03T09:56:27.546Z,2.50
2022-11-03T09:58:55.329Z,3.00
2022-11-03T10:01:23.383Z,2.40
2022-11-03T10:03:53.087Z,2.57
2022-11-03T10:06:21.275Z,2.50
2022-11-03T10:08:50.143Z,2.80
2022-11-03T10:11:18.024Z,2.43
2022-11-03T10:13:48.801Z,2.83
2022-11-03T10:16:19.540Z,2.57
2022-11-03T10:18:47.463Z,2.30
2022-11-03T10:21:19.640Z,2.20
2022-11-03T10:23:47.440Z,2.70
2022-11-03T10:26:18.865Z,2.40
2022-11-03T10:29:00.429Z,2.70
2022-11-03T10:31:35.070Z,2.43
2022-11-03T10:34:03.527Z,2.63
2022-11-03T10:36:34.932Z,2.33
2022-11-03T10:39:25.462Z,2.33
2022-11-03T10:41:58.449Z,2.43
2022-11-03T10:44:28.467Z,2.27
2022-11-03T10:47:00.968Z,2.17
2022-11-03T10:49:30.309Z,2.90
2022-11-03T10:52:09.214Z,2.50
2022-11-03T10:54:38.012Z,2.13
2022-11-03T10:57:06.124Z,2.63
2022-11-03T10:59:37.534Z,2.37
2022-11-03T11:02:14.495Z,2.13
2022-11-03T11:04:42.951Z,2.50
2022-11-03T11:07:20.705Z,2.57
2022-11-03T11:09:49.156Z,2.90
2022-11-03T11:12:19.359Z,2.57
2022-11-03T11:14:58.278Z,2.30
2022-11-03T11:17:46.982Z,2.27
2022-11-03T11:20:36.163Z,2.20
2022-11-03T11:23:45.884Z,2.60
2022-11-03T11:26:40.981Z,2.07
2022-11-03T11:29:42.641Z,2.27
2022-11-03T11:32:49.919Z,3.23
2022-11-03T11:35:34.140Z,2.47
2022-11-03T11:38:35.454Z,2.73
2022-11-03T11:41:03.193Z,2.93
2022-11-03T11:43:32.456Z,2.13
2022-11-03T11:46:40.750Z,2.40
2022-11-03T11:49:18.692Z,2.10
2022-11-03T11:51:46.935Z,2.20
2022-11-03T11:54:20.522Z,2.10
2022-11-03T11:56:50.878Z,2.10
2022-11-03T11:59:25.712Z,1.93
2022-11-03T12:01:56.419Z,1.83
2022-11-03T12:04:29.111Z,2.60
2022-11-03T12:06:57.521Z,2.00
2022-11-03T12:09:27.983Z,2.10
2022-11-03T12:12:00.539Z,2.30
2022-11-03T12:14:36.689Z,1.90
2022-11-03T12:17:32.785Z,2.50
2022-11-03T12:20:00.517Z,2.20
2022-11-03T12:22:42.103Z,2.03
2022-11-03T12:25:34.542Z,2.13
2022-11-03T12:28:02.361Z,1.90
2022-11-03T12:30:35.528Z,2.10
2022-11-03T12:33:06.555Z,2.20
2022-11-03T12:35:34.500Z,2.07
2022-11-03T12:38:02.286Z,2.17
2022-11-03T12:40:31.478Z,2.23
2022-11-03T12:42:59.235Z,1.83
2022-11-03T12:45:26.996Z,2.00
2022-11-03T12:47:56.118Z,2.20
2022-11-03T12:50:23.885Z,2.10
2022-11-03T12:52:51.679Z,2.10
2022-11-03T12:55:19.565Z,2.47
2022-11-03T12:57:47.455Z,2.00
2022-11-03T13:00:16.185Z,1.87
2022-11-03T13:02:44.032Z,2.17
2022-11-03T13:05:15.281Z,2.10
2022-11-03T13:07:43.443Z,2.10
2022-11-03T13:10:11.690Z,1.60
2022-11-03T13:12:41.442Z,1.80
2022-11-03T13:15:13.204Z,1.93
2022-11-03T13:18:07.280Z,1.90
2022-11-03T13:20:30.164Z,2.50
2022-11-03T13:22:58.184Z,1.90
2022-11-03T13:25:26.349Z,2.00
2022-11-03T13:27:54.766Z,2.40
2022-11-03T13:30:23.012Z,1.87
2022-11-03T13:32:51.047Z,2.00
2022-11-03T13:35:19.167Z,1.80
2022-11-03T13:37:48.535Z,1.93
2022-11-03T13:40:50.242Z,1.80
2022-11-03T13:43:04.931Z,1.60
2022-11-03T13:45:32.904Z,1.90
2022-11-03T13:50:50.840Z,1.70
2022-11-03T13:56:11.496Z,1.60
2022-11-03T14:01:30.932Z,1.70
2022-11-03T14:06:46.763Z,2.00
2022-11-03T14:09:15.860Z,1.57
2022-11-03T14:12:01.113Z,1.53
2022-11-03T14:14:28.882Z,1.80
2022-11-03T14:16:56.739Z,1.50
2022-11-03T14:19:30.965Z,1.87
2022-11-03T14:22:03.295Z,1.80
2022-11-03T14:24:32.370Z,1.60
2022-11-03T14:27:00.164Z,1.20
2022-11-03T14:29:28.045Z,1.60
2022-11-03T14:31:55.880Z,1.60
2022-11-03T14:34:23.680Z,1.60
2022-11-03T14:36:51.574Z,1.70
2022-11-03T14:39:19.417Z,2.17
2022-11-03T14:42:05.628Z,1.77
2022-11-03T14:44:34.773Z,1.87
2022-11-03T14:47:03.960Z,1.80
2022-11-03T14:49:32.702Z,1.77
2022-11-03T14:52:01.709Z,2.03
2022-11-03T14:54:30.476Z,1.80
2022-11-03T14:56:59.916Z,1.90
2022-11-03T14:59:27.769Z,1.70
2022-11-03T15:01:56.058Z,2.00
2022-11-03T15:04:24.030Z,1.53
2022-11-03T15:06:51.801Z,2.07
2022-11-03T15:09:19.690Z,2.00
2022-11-03T15:11:47.712Z,2.53
2022-11-03T15:14:16.968Z,2.10
2022-11-03T15:16:46.000Z,2.00
2022-11-03T15:19:14.005Z,1.97
2022-11-03T15:21:41.865Z,2.10
2022-11-03T15:26:57.692Z,1.97
2022-11-03T15:29:26.832Z,2.00
2022-11-03T15:31:54.619Z,2.00
2022-11-03T15:34:22.409Z,2.40
2022-11-03T15:36:50.170Z,2.40
2022-11-03T15:39:18.186Z,2.30
2022-11-03T15:41:45.923Z,2.60
2022-11-03T15:44:13.711Z,2.40
2022-11-03T15:46:43.090Z,2.03
2022-11-03T15:49:10.842Z,1.97
2022-11-03T15:51:38.572Z,2.07
2022-11-03T15:54:06.407Z,2.17
2022-11-03T15:56:34.469Z,2.10
2022-11-03T15:59:02.213Z,2.23
2022-11-03T16:01:30.150Z,2.20
2022-11-03T16:03:59.794Z,2.30
2022-11-03T16:06:53.724Z,2.00
2022-11-03T16:09:15.354Z,2.17
2022-11-03T16:11:43.107Z,2.20
2022-11-03T16:14:10.841Z,2.07
2022-11-03T16:16:38.664Z,2.37
2022-11-03T16:19:07.813Z,2.17
2022-11-03T16:21:35.607Z,2.50
2022-11-03T16:24:03.486Z,2.20
2022-11-03T16:26:31.540Z,2.63
2022-11-03T16:28:59.362Z,2.87
2022-11-03T16:31:27.456Z,2.40
2022-11-03T16:33:55.250Z,2.50
2022-11-03T16:36:24.354Z,2.37
2022-11-03T16:38:52.121Z,2.50
2022-11-03T16:41:19.928Z,2.60
2022-11-03T16:43:49.685Z,2.50
2022-11-03T16:46:17.554Z,2.80
2022-11-03T16:48:45.439Z,2.60
2022-11-03T16:51:13.761Z,2.50
2022-11-03T16:53:42.876Z,2.60
2022-11-03T16:56:10.611Z,2.80
2022-11-03T16:58:38.399Z,3.10
2022-11-03T17:01:06.857Z,2.90
2022-11-03T17:03:34.629Z,2.83
2022-11-03T17:06:02.385Z,3.23
2022-11-03T17:08:51.993Z,3.13
2022-11-03T17:11:35.593Z,3.50
2022-11-03T17:14:04.827Z,3.00
2022-11-03T17:16:32.622Z,3.30
2022-11-03T17:19:00.385Z,3.00
2022-11-03T17:21:28.364Z,3.63
2022-11-03T17:23:56.491Z,3.10
2022-11-03T17:26:31.372Z,3.33
2022-11-03T17:28:59.166Z,3.80
2022-11-03T17:31:27.019Z,3.30
2022-11-03T17:33:57.392Z,3.37
2022-11-03T17:36:25.412Z,3.70
2022-11-03T17:38:53.933Z,3.43
2022-11-03T17:41:21.694Z,3.70
2022-11-03T17:43:50.826Z,3.97
2022-11-03T17:46:18.609Z,3.73
2022-11-03T17:48:47.542Z,3.67
2022-11-03T17:51:15.303Z,3.80
2022-11-03T17:53:44.610Z,4.30
2022-11-03T17:56:33.684Z,4.07
2022-11-03T17:59:03.011Z,3.70
2022-11-03T18:01:30.856Z,4.10
2022-11-03T18:03:59.160Z,3.83
2022-11-03T18:06:26.923Z,4.13
2022-11-03T18:08:54.673Z,4.40
2022-11-03T18:11:44.950Z,4.00
2022-11-03T18:14:14.309Z,4.60
2022-11-03T18:16:42.297Z,4.63
2022-11-03T18:19:12.794Z,4.67
2022-11-03T18:21:40.857Z,4.17
2022-11-03T18:24:12.051Z,4.30
2022-11-03T18:26:39.937Z,4.50
2022-11-03T18:31:44.469Z,4.90
2022-11-03T18:34:16.344Z,4.37
2022-11-03T18:36:44.764Z,4.40
2022-11-03T18:39:23.922Z,4.23
2022-11-03T18:41:51.984Z,4.60
2022-11-03T18:44:22.625Z,4.33
2022-11-03T18:46:54.450Z,4.70
2022-11-03T18:49:23.400Z,4.97
2022-11-03T18:51:59.173Z,4.97
2022-11-03T18:54:31.289Z,4.97
2022-11-03T18:56:59.277Z,5.43
2022-11-03T18:59:30.820Z,5.57
2022-11-03T19:02:00.521Z,5.93
2022-11-03T19:04:28.427Z,5.43
2022-11-03T19:06:57.512Z,6.03
2022-11-03T19:09:27.710Z,6.17
2022-11-03T19:11:58.121Z,7.00
2022-11-03T19:14:29.762Z,5.87
2022-11-03T19:17:21.645Z,6.50
2022-11-03T19:19:47.583Z,6.07
2022-11-03T19:22:17.490Z,6.40
2022-11-03T19:24:45.818Z,5.60
2022-11-03T19:27:17.496Z,5.83
2022-11-03T19:29:46.668Z,4.90
2022-11-03T19:32:20.165Z,5.03
2022-11-03T19:34:51.230Z,5.00
2022-11-03T19:37:19.083Z,4.87
2022-11-03T19:39:47.294Z,4.20
2022-11-03T19:42:28.408Z,3.80
2022-11-03T19:44:57.912Z,3.33
2022-11-03T19:47:31.662Z,3.80
2022-11-03T19:50:01.537Z,3.83
2022-11-03T19:52:30.964Z,4.30
2022-11-03T19:54:59.456Z,3.10
2022-11-03T19:57:27.204Z,2.90
2022-11-03T19:59:58.746Z,2.10
2022-11-03T20:02:29.063Z,1.10
2022-11-03T20:04:57.000Z,1.23
2022-11-03T20:07:30.996Z,1.20
2022-11-03T20:10:00.425Z,0.97
2022-11-03T20:12:28.733Z,0.90
2022-11-03T20:14:56.505Z,0.90
2022-11-03T20:17:24.596Z,0.90
2022-11-03T20:19:53.878Z,0.70
2022-11-03T20:22:28.548Z,1.03
2022-11-03T20:24:59.010Z,1.07
2022-11-03T20:27:26.938Z,1.10
2022-11-03T20:29:54.842Z,1.10
2022-11-03T20:32:23.014Z,1.27
2022-11-03T20:34:50.773Z,0.90
2022-11-03T20:37:21.593Z,1.00
2022-11-03T20:39:49.795Z,0.90
2022-11-03T20:42:21.027Z,1.03
2022-11-03T20:44:48.997Z,1.20
2022-11-03T20:47:17.808Z,1.67
2022-11-03T20:49:45.654Z,0.90
2022-11-03T20:52:14.922Z,0.80
2022-11-03T20:54:44.754Z,0.90
2022-11-03T20:57:13.925Z,1.40
2022-11-03T20:59:42.195Z,0.87
2022-11-03T21:02:12.353Z,0.93
2022-11-03T21:04:40.928Z,1.23
2022-11-03T21:07:12.099Z,1.30
2022-11-03T21:09:40.081Z,0.97
2022-11-03T21:12:13.753Z,0.83
2022-11-03T21:15:04.902Z,1.10
2022-11-03T21:17:50.326Z,1.13
2022-11-03T21:20:18.069Z,1.27
2022-11-03T21:22:54.345Z,1.40
2022-11-03T21:25:24.462Z,1.20
2022-11-03T21:27:54.603Z,1.23
2022-11-03T21:30:23.989Z,0.90
2022-11-03T21:32:51.956Z,0.80
2022-11-03T21:35:22.525Z,1.30
2022-11-03T21:37:50.294Z,1.00
2022-11-03T21:40:18.557Z,0.90
2022-11-03T21:43:04.029Z,1.10
2022-11-03T21:45:33.560Z,0.80
2022-11-03T21:48:19.651Z,0.73
2022-11-03T21:50:48.014Z,0.80
2022-11-03T21:53:15.842Z,0.80
2022-11-03T21:55:43.696Z,0.83
2022-11-03T21:58:11.450Z,0.87
2022-11-03T22:00:40.577Z,1.20
2022-11-03T22:03:08.711Z,1.00
2022-11-03T22:05:36.695Z,1.00
2022-11-03T22:08:04.702Z,0.80
2022-11-03T22:10:32.451Z,1.07
2022-11-03T22:13:00.233Z,1.40
2022-11-03T22:15:45.842Z,1.00
2022-11-03T22:18:14.941Z,0.67
2022-11-03T22:21:00.228Z,0.80
2022-11-03T22:23:45.378Z,0.90
2022-11-03T22:26:33.059Z,0.90
2022-11-03T22:29:18.658Z,1.17
2022-11-03T22:31:46.502Z,1.00
2022-11-03T22:34:33.415Z,1.10
2022-11-03T22:37:01.220Z,1.27
2022-11-03T22:39:47.104Z,1.10
2022-11-03T22:42:32.311Z,1.20
2022-11-03T22:45:17.462Z,1.27
2022-11-03T22:47:45.224Z,1.00
2022-11-03T22:50:14.482Z,0.93
2022-11-03T22:52:42.247Z,1.30
2022-11-03T22:55:09.244Z,1.10
2022-11-03T22:57:36.996Z,1.10
2022-11-03T23:00:06.597Z,1.20
2022-11-03T23:02:34.423Z,0.87
2022-11-03T23:05:02.247Z,1.00
2022-11-03T23:07:34.760Z,1.00
2022-11-03T23:10:05.198Z,1.17
2022-11-03T23:12:33.237Z,0.90
2022-11-03T23:15:18.786Z,0.90
2022-11-03T23:18:04.132Z,0.90
2022-11-03T23:20:49.511Z,0.80
2022-11-03T23:23:32.540Z,0.80
2022-11-03T23:26:00.323Z,0.93
2022-11-03T23:28:28.060Z,1.00
2022-11-03T23:30:55.790Z,0.77
2022-11-03T23:33:23.525Z,1.23
2022-11-03T23:35:51.287Z,0.93
2022-11-03T23:38:20.390Z,0.97
2022-11-03T23:40:48.178Z,0.90
2022-11-03T23:43:15.926Z,0.70
2022-11-03T23:46:01.406Z,0.90
2022-11-03T23:48:47.436Z,0.80
2022-11-03T23:51:16.210Z,0.80
2022-11-03T23:53:45.985Z,0.70
2022-11-03T23:56:33.013Z,0.80
2022-11-03T23:59:00.906Z,0.90
